createdAt,value
2023-03-22T00:02:26.471Z,10.20
2023-03-22T00:05:30.367Z,8.73
2023-03-22T00:08:31.947Z,13.50
2023-03-22T00:11:34.134Z,12.30
2023-03-22T00:14:36.155Z,9.10
2023-03-22T00:17:38.186Z,8.83
2023-03-22T00:20:46.638Z,10.07
2023-03-22T00:23:48.270Z,7.77
2023-03-22T00:26:49.907Z,10.67
2023-03-22T00:29:54.520Z,12.57
2023-03-22T00:32:56.083Z,12.83
2023-03-22T00:36:00.704Z,11.77
2023-03-22T00:39:02.287Z,8.20
2023-03-22T00:42:05.790Z,13.73
2023-03-22T00:45:10.264Z,8.90
2023-03-22T00:48:12.537Z,11.23
2023-03-22T00:51:15.427Z,13.10
2023-03-22T00:54:17.342Z,10.97
2023-03-22T00:57:19.010Z,11.90
2023-03-22T01:00:20.812Z,10.37
2023-03-22T01:03:22.589Z,11.33
2023-03-22T01:06:24.187Z,10.07
2023-03-22T01:09:28.804Z,10.87
2023-03-22T01:12:30.681Z,8.30
2023-03-22T01:15:32.742Z,8.10
2023-03-22T01:18:35.590Z,9.90
2023-03-22T01:21:37.220Z,12.03
2023-03-22T01:24:38.818Z,7.80
2023-03-22T01:27:40.507Z,9.40
2023-03-22T01:30:42.662Z,8.30
2023-03-22T01:33:44.459Z,10.33
2023-03-22T01:36:46.158Z,11.60
2023-03-22T01:39:48.115Z,10.07
2023-03-22T01:42:49.696Z,9.30
2023-03-22T01:45:52.813Z,9.03
2023-03-22T01:48:54.572Z,8.90
2023-03-22T01:52:00.794Z,12.40
2023-03-22T01:55:04.464Z,8.60
2023-03-22T01:58:06.684Z,10.10
2023-03-22T02:01:10.970Z,10.80
2023-03-22T02:04:23.309Z,11.10
2023-03-22T02:07:27.902Z,8.60
2023-03-22T02:10:29.648Z,13.50
2023-03-22T02:13:48.006Z,9.60
2023-03-22T02:17:35.433Z,8.77
2023-03-22T02:20:55.825Z,12.67
2023-03-22T02:24:27.833Z,15.00
2023-03-22T02:28:07.969Z,16.50
2023-03-22T02:31:48.803Z,9.63
2023-03-22T02:35:27.669Z,11.00
2023-03-22T02:39:07.240Z,10.90
2023-03-22T02:42:27.548Z,12.23
2023-03-22T02:45:42.207Z,11.00
2023-03-22T02:48:59.840Z,10.30
2023-03-22T02:52:12.308Z,10.43
2023-03-22T02:55:21.062Z,9.60
2023-03-22T02:58:48.150Z,8.70
2023-03-22T03:01:53.141Z,10.50
2023-03-22T03:04:56.945Z,10.77
2023-03-22T03:08:02.361Z,11.57
2023-03-22T03:11:04.168Z,9.50
2023-03-22T03:14:05.748Z,10.30
2023-03-22T03:17:28.804Z,12.63
2023-03-22T03:20:39.763Z,9.80
2023-03-22T03:23:52.997Z,11.57
2023-03-22T03:27:17.633Z,9.23
2023-03-22T03:30:32.769Z,13.07
2023-03-22T03:33:37.782Z,11.30
2023-03-22T03:36:44.471Z,13.67
2023-03-22T03:40:10.850Z,14.23
2023-03-22T03:43:14.043Z,9.57
2023-03-22T03:46:16.267Z,13.40
2023-03-22T03:49:19.112Z,12.20
2023-03-22T03:52:24.428Z,9.63
2023-03-22T03:55:27.576Z,12.30
2023-03-22T03:58:30.595Z,11.17
2023-03-22T04:01:32.187Z,12.53
2023-03-22T04:04:34.636Z,9.43
2023-03-22T04:07:36.814Z,10.27
2023-03-22T04:10:38.773Z,10.13
2023-03-22T04:13:40.462Z,10.03
2023-03-22T04:16:42.008Z,15.80
2023-03-22T04:19:45.611Z,13.90
2023-03-22T04:22:48.839Z,9.37
2023-03-22T04:25:51.788Z,13.67
2023-03-22T04:28:53.365Z,10.33
2023-03-22T04:31:55.003Z,11.00
2023-03-22T04:34:56.543Z,12.17
2023-03-22T04:37:59.186Z,11.90
2023-03-22T04:41:00.726Z,11.10
2023-03-22T04:44:03.296Z,12.57
2023-03-22T04:47:04.976Z,9.13
2023-03-22T04:50:08.185Z,10.40
2023-03-22T04:53:09.810Z,13.90
2023-03-22T04:56:13.347Z,12.50
2023-03-22T04:59:17.742Z,12.33
2023-03-22T05:02:19.395Z,13.60
2023-03-22T05:05:21.006Z,11.13
2023-03-22T05:08:26.692Z,12.23
2023-03-22T05:11:28.317Z,13.60
2023-03-22T05:14:29.874Z,15.33
2023-03-22T05:17:31.433Z,12.17
2023-03-22T05:20:33.030Z,10.57
2023-03-22T05:23:34.623Z,14.50
2023-03-22T05:26:37.978Z,12.13
2023-03-22T05:29:44.722Z,14.80
2023-03-22T05:32:47.341Z,17.40
2023-03-22T05:35:50.421Z,15.90
2023-03-22T05:38:52.355Z,13.20
2023-03-22T05:41:54.094Z,12.30
2023-03-22T05:44:55.752Z,12.77
2023-03-22T05:47:57.345Z,13.63
2023-03-22T05:50:59.044Z,11.10
2023-03-22T05:54:00.934Z,16.93
2023-03-22T05:57:02.481Z,15.23
2023-03-22T06:00:07.229Z,11.30
2023-03-22T06:03:08.911Z,14.83
2023-03-22T06:06:10.806Z,13.20
2023-03-22T06:09:17.643Z,11.30
2023-03-22T06:12:24.473Z,11.07
2023-03-22T06:15:26.142Z,14.57
2023-03-22T06:18:28.370Z,11.40
2023-03-22T06:21:30.340Z,12.50
2023-03-22T06:24:31.912Z,11.73
2023-03-22T06:27:33.856Z,11.70
2023-03-22T06:30:35.527Z,13.53
2023-03-22T06:33:37.445Z,12.80
2023-03-22T06:36:39.307Z,10.93
2023-03-22T06:39:40.963Z,11.93
2023-03-22T06:42:42.529Z,12.77
2023-03-22T06:45:46.821Z,15.33
2023-03-22T06:48:48.463Z,13.60
2023-03-22T06:51:50.255Z,11.33
2023-03-22T06:54:51.831Z,13.07
2023-03-22T06:57:53.428Z,13.90
2023-03-22T07:00:58.055Z,12.93
2023-03-22T07:03:59.677Z,10.23
2023-03-22T07:07:01.309Z,11.30
2023-03-22T07:10:03.090Z,11.27
2023-03-22T07:13:04.771Z,13.10
2023-03-22T07:16:07.157Z,9.63
2023-03-22T07:19:09.053Z,10.53
2023-03-22T07:22:10.711Z,10.37
2023-03-22T07:25:12.748Z,10.30
2023-03-22T07:28:15.322Z,9.50
2023-03-22T07:31:17.496Z,8.00
2023-03-22T07:34:19.067Z,8.47
2023-03-22T07:37:20.759Z,7.67
2023-03-22T07:40:23.103Z,10.53
2023-03-22T07:43:25.388Z,10.40
2023-03-22T07:46:27.141Z,12.03
2023-03-22T07:49:28.882Z,9.27
2023-03-22T07:52:30.665Z,9.87
2023-03-22T07:55:32.249Z,9.63
2023-03-22T07:58:33.875Z,10.07
2023-03-22T08:01:35.534Z,7.47
2023-03-22T08:04:37.587Z,8.87
2023-03-22T08:07:39.227Z,6.57
2023-03-22T08:10:41.076Z,7.67
2023-03-22T08:13:42.827Z,7.33
2023-03-22T08:16:44.774Z,7.77
2023-03-22T08:19:46.481Z,13.90
2023-03-22T08:22:48.352Z,9.83
2023-03-22T08:25:50.681Z,9.13
2023-03-22T08:28:52.317Z,8.03
2023-03-22T08:31:54.120Z,7.40
2023-03-22T08:34:56.011Z,12.23
2023-03-22T08:37:57.765Z,8.23
2023-03-22T08:40:59.367Z,9.30
2023-03-22T08:44:01.006Z,8.43
2023-03-22T08:47:03.265Z,8.13
2023-03-22T08:50:05.488Z,9.43
2023-03-22T08:53:07.133Z,9.57
2023-03-22T08:56:09.545Z,6.77
2023-03-22T08:59:11.160Z,5.87
2023-03-22T09:02:13.013Z,6.53
2023-03-22T09:05:14.762Z,6.70
2023-03-22T09:08:19.417Z,4.93
2023-03-22T09:11:21.769Z,7.33
2023-03-22T09:14:23.480Z,7.80
2023-03-22T09:17:25.138Z,4.97
2023-03-22T09:20:27.242Z,5.67
2023-03-22T09:23:30.274Z,4.40
2023-03-22T09:26:32.035Z,5.40
2023-03-22T09:29:33.998Z,3.40
2023-03-22T09:32:35.858Z,6.60
2023-03-22T09:35:42.553Z,4.70
2023-03-22T09:38:45.254Z,4.83
2023-03-22T09:41:54.336Z,4.37
2023-03-22T09:44:57.355Z,3.77
2023-03-22T09:47:59.739Z,2.10
2023-03-22T09:51:04.561Z,4.30
2023-03-22T09:54:19.579Z,2.03
2023-03-22T09:57:34.884Z,4.03
2023-03-22T10:00:56.992Z,1.80
2023-03-22T10:04:47.181Z,2.23
2023-03-22T10:08:15.856Z,2.03
2023-03-22T10:11:49.054Z,3.07
2023-03-22T10:15:00.246Z,1.53
2023-03-22T10:18:06.163Z,2.33
2023-03-22T10:21:17.266Z,4.30
2023-03-22T10:24:26.124Z,1.43
2023-03-22T10:27:30.580Z,1.53
2023-03-22T10:30:37.769Z,3.70
2023-03-22T10:33:50.344Z,2.60
2023-03-22T10:36:53.161Z,2.23
2023-03-22T10:39:56.645Z,2.03
2023-03-22T10:43:09.790Z,4.33
2023-03-22T10:46:18.619Z,1.77
2023-03-22T10:49:34.076Z,3.47
2023-03-22T10:52:45.272Z,1.97
2023-03-22T10:55:46.998Z,3.47
2023-03-22T10:58:50.417Z,3.63
2023-03-22T11:01:52.680Z,1.47
2023-03-22T11:04:57.212Z,1.60
2023-03-22T11:07:59.013Z,2.23
2023-03-22T11:11:00.929Z,1.93
2023-03-22T11:14:13.082Z,1.67
2023-03-22T11:17:19.645Z,3.33
2023-03-22T11:20:22.063Z,3.03
2023-03-22T11:23:25.246Z,1.57
2023-03-22T11:26:31.297Z,2.30
2023-03-22T11:30:22.607Z,1.40
2023-03-22T11:33:25.861Z,1.97
2023-03-22T11:36:29.224Z,4.60
2023-03-22T11:39:30.907Z,1.70
2023-03-22T11:42:34.529Z,1.80
2023-03-22T11:45:41.018Z,2.73
2023-03-22T11:48:44.820Z,1.70
2023-03-22T11:51:46.616Z,1.70
2023-03-22T11:54:48.910Z,1.53
2023-03-22T11:57:52.002Z,1.90
2023-03-22T12:00:58.660Z,1.97
2023-03-22T12:04:04.234Z,2.00
2023-03-22T12:07:16.602Z,1.70
2023-03-22T12:10:32.272Z,1.77
2023-03-22T12:13:51.239Z,1.80
2023-03-22T12:16:59.453Z,3.33
2023-03-22T12:20:12.728Z,2.00
2023-03-22T12:23:20.082Z,2.33
2023-03-22T12:26:27.751Z,3.23
2023-03-22T12:29:30.484Z,2.67
2023-03-22T12:32:48.788Z,2.30
2023-03-22T12:35:52.555Z,3.20
2023-03-22T12:38:57.035Z,2.47
2023-03-22T12:42:06.287Z,2.00
2023-03-22T12:45:38.110Z,4.87
2023-03-22T12:48:46.640Z,2.00
2023-03-22T12:51:51.652Z,2.07
2023-03-22T12:54:54.094Z,2.87
2023-03-22T12:57:56.692Z,1.90
2023-03-22T13:01:20.881Z,2.00
2023-03-22T13:04:35.934Z,1.83
2023-03-22T13:07:46.610Z,3.33
2023-03-22T13:11:01.284Z,2.87
2023-03-22T13:14:02.897Z,4.40
2023-03-22T13:17:07.456Z,2.20
2023-03-22T13:20:11.818Z,2.00
2023-03-22T13:23:26.994Z,2.83
2023-03-22T13:26:49.448Z,2.20
2023-03-22T13:29:54.003Z,2.50
2023-03-22T13:33:21.158Z,1.97
2023-03-22T13:36:25.059Z,2.20
2023-03-22T13:39:34.453Z,3.63
2023-03-22T13:42:39.816Z,3.27
2023-03-22T13:46:06.836Z,2.70
2023-03-22T13:49:42.677Z,2.13
2023-03-22T13:52:54.378Z,2.37
2023-03-22T13:55:56.333Z,5.87
2023-03-22T13:58:58.580Z,2.30
2023-03-22T14:02:11.983Z,2.40
2023-03-22T14:05:20.719Z,2.50
2023-03-22T14:08:28.312Z,2.60
2023-03-22T14:11:39.183Z,2.60
2023-03-22T14:14:48.795Z,2.70
2023-03-22T14:18:02.105Z,3.53
2023-03-22T14:21:09.331Z,2.23
